Terminal Aerodrome Forecast
Issued by NWS Pocatello, ID

Home | Current Version | Previous Version | Text Only | Print | Product List | Glossary On
Versions: 1 2 3 4 5 6 7 8 9 10 11 12 13 14 15
000
FTUS45 KPIH 311900 AAA
TAFPIH
TAF AMD
KPIH 311919Z 3119/0118 05010KT P6SM VCTS SCT080CB
     FM010300 VRB05KT P6SM VCTS FEW100 SCT150CB=

USA.gov is the U.S. government's official web portal to all federal, state and local government web resources and services.